»·PEaware :: N800DW KSBP-KACV

N800DW :: KSBP-KACV

FLIGHT INFORMATION

Flight Status: Arrived
Operator: Privately registered:
United States
More flights under this callsign
Pilot: Scott L. (17677)
Aircraft: PIPER PA-30 TWIN COMANCHE
(PA30)
More flights by this aircraft type
Origin: KSBP San Luis Co Regl
United States
Destination: KACV Arcata
United States
More flights between these airports :: More routes between these airports
Route: +MQO V27 ENI V607 KNEES
File this flight plan on PilotEdge
Remarks:
Altitude:
(Current/Filed)
12,000ft
Speed:
(Current/Filed)
185kts
Departed: 08-Feb-19 11:20 AM
Arrived: 08-Feb-19 01:51 PM
Distance/Time
Traveled:
381nm/2:31
Distance/Time
To Go:
Arrived

Flight Plot

Page will automatically refresh every two minutes.

Flight plan parsing failed; only flown route is shown


Map Options




Map Legend


Flown Route
Filed Route
Departure Airport
Arrival Airport
Navaid (VOR, NDB)
Fix

Horizontal Profiles

Position Reports

Time Latitude Longitude Heading Altitude Ground
Speed
08-Feb-19 10:38 35.236418 -120.635835 141 215ft 0kts
08-Feb-19 10:40 35.236418 -120.635835 141 215ft 0kts
08-Feb-19 10:41 35.236418 -120.635835 141 215ft 0kts
08-Feb-19 10:41 35.236418 -120.635835 141 215ft 0kts
08-Feb-19 10:42 35.236418 -120.635835 141 215ft 0kts
08-Feb-19 10:43 35.236418 -120.635835 142 215ft 0kts
08-Feb-19 10:44 35.236418 -120.635835 141 215ft 0kts
08-Feb-19 10:45 35.236418 -120.635835 141 215ft 0kts
08-Feb-19 10:46 35.236418 -120.635835 141 215ft 0kts
08-Feb-19 10:47 35.236418 -120.635835 141 215ft 0kts
08-Feb-19 10:48 35.236418 -120.635835 141 215ft 0kts
08-Feb-19 10:49 35.236418 -120.635835 141 215ft 0kts
08-Feb-19 10:50 35.236418 -120.635835 141 215ft 0kts
08-Feb-19 10:51 35.236418 -120.635835 141 215ft 0kts
08-Feb-19 10:52 35.236418 -120.635835 141 215ft 0kts
08-Feb-19 10:53 35.236418 -120.635835 141 215ft 0kts
08-Feb-19 10:54 35.236418 -120.635835 141 215ft 0kts
08-Feb-19 10:55 35.236418 -120.635835 141 215ft 0kts
08-Feb-19 10:56 35.236418 -120.635835 141 215ft 0kts
08-Feb-19 10:57 35.236418 -120.635835 141 215ft 0kts
08-Feb-19 10:58 35.236418 -120.635835 141 215ft 0kts
08-Feb-19 10:59 35.236418 -120.635835 141 215ft 0kts
08-Feb-19 11:00 35.236418 -120.635835 141 215ft 0kts
08-Feb-19 11:01 35.236418 -120.635835 141 215ft 0kts
08-Feb-19 11:02 35.236418 -120.635835 141 215ft 0kts
08-Feb-19 11:03 35.236418 -120.635835 141 215ft 0kts
08-Feb-19 11:04 35.236418 -120.635835 141 215ft 0kts
08-Feb-19 11:05 35.236418 -120.635835 141 215ft 0kts
08-Feb-19 11:06 35.236418 -120.635835 141 215ft 0kts
08-Feb-19 11:07 35.236418 -120.635835 141 215ft 0kts
08-Feb-19 11:08 35.236418 -120.635835 141 215ft 0kts
08-Feb-19 11:09 35.236418 -120.635835 141 215ft 0kts
08-Feb-19 11:10 35.236418 -120.635835 141 215ft 0kts
08-Feb-19 11:11 35.236418 -120.635835 141 215ft 0kts
08-Feb-19 11:12 35.236418 -120.635835 141 215ft 0kts
08-Feb-19 11:13 35.236418 -120.635835 141 215ft 0kts
08-Feb-19 11:14 35.236418 -120.635835 141 215ft 0kts
08-Feb-19 11:15 35.236392 -120.635810 144 215ft 1kts
08-Feb-19 11:16 35.234384 -120.633960 122 215ft 21kts
08-Feb-19 11:17 35.233056 -120.632307 238 215ft 0kts
08-Feb-19 11:18 35.233135 -120.633689 304 215ft 36kts
08-Feb-19 11:19 35.250785 -120.662253 303 626ft 133kts
08-Feb-19 11:20 35.273468 -120.699678 303 1454ft 138kts
08-Feb-19 11:21 35.296369 -120.737477 303 2276ft 137kts
08-Feb-19 11:22 35.319465 -120.774835 303 3066ft 137kts
08-Feb-19 11:23 35.342893 -120.811706 303 3826ft 136kts
08-Feb-19 11:24 35.365678 -120.846647 303 4529ft 136kts
08-Feb-19 11:25 35.389734 -120.882374 303 5230ft 136kts
08-Feb-19 11:26 35.414352 -120.917721 303 5907ft 135kts
08-Feb-19 11:27 35.439341 -120.952342 303 6550ft 133kts
08-Feb-19 11:28 35.464660 -120.986582 303 7177ft 136kts
08-Feb-19 11:29 35.490572 -121.020620 303 7795ft 136kts
08-Feb-19 11:30 35.516882 -121.054201 303 8385ft 136kts
08-Feb-19 11:31 35.543675 -121.087553 303 8954ft 137kts
08-Feb-19 11:32 35.570730 -121.120546 303 9498ft 137kts
08-Feb-19 11:33 35.598240 -121.153430 303 10021ft 138kts
08-Feb-19 11:34 35.626988 -121.187836 303 10210ft 155kts
08-Feb-19 11:35 35.658431 -121.226888 303 10206ft 163kts
08-Feb-19 11:36 35.688110 -121.262348 303 10819ft 141kts
08-Feb-19 11:37 35.716627 -121.294945 303 11304ft 139kts
08-Feb-19 11:38 35.745694 -121.327910 304 11602ft 150kts
08-Feb-19 11:39 35.776847 -121.364586 303 11597ft 155kts
08-Feb-19 11:40 35.808170 -121.401733 303 11596ft 156kts
08-Feb-19 11:41 35.839661 -121.439147 303 11596ft 157kts
08-Feb-19 11:42 35.871210 -121.476720 303 11578ft 158kts
08-Feb-19 11:43 35.903023 -121.514740 304 11559ft 158kts
08-Feb-19 11:44 35.942456 -121.539819 350 11546ft 179kts
08-Feb-19 11:45 35.989888 -121.552826 330 11533ft 172kts
08-Feb-19 11:46 36.034931 -121.573829 330 11529ft 172kts
08-Feb-19 11:47 36.080231 -121.594878 330 11528ft 173kts
08-Feb-19 11:48 36.125544 -121.615942 330 11519ft 172kts
08-Feb-19 11:49 36.170393 -121.636826 330 11519ft 171kts
08-Feb-19 11:50 36.209528 -121.666541 313 11522ft 163kts
08-Feb-19 11:51 36.246932 -121.698831 313 11521ft 163kts
08-Feb-19 11:52 36.284389 -121.731361 313 11521ft 164kts
08-Feb-19 11:53 36.321787 -121.763875 313 11522ft 164kts
08-Feb-19 11:54 36.359216 -121.796474 313 11522ft 164kts
08-Feb-19 11:55 36.396592 -121.829064 313 11522ft 164kts
08-Feb-19 11:56 36.434115 -121.861823 313 11522ft 164kts
08-Feb-19 11:57 36.471495 -121.894497 313 11522ft 164kts
08-Feb-19 11:58 36.509020 -121.927334 313 11522ft 164kts
08-Feb-19 11:59 36.546533 -121.960199 313 11523ft 164kts
08-Feb-19 12:00 36.583977 -121.993041 313 11523ft 164kts
08-Feb-19 12:01 36.621371 -122.025886 313 11523ft 164kts
08-Feb-19 12:02 36.658921 -122.058913 313 11523ft 165kts
08-Feb-19 12:03 36.696498 -122.091980 313 11523ft 164kts
08-Feb-19 12:04 36.733807 -122.124883 313 11524ft 164kts
08-Feb-19 12:05 36.771279 -122.157948 313 11524ft 164kts
08-Feb-19 12:06 36.808896 -122.191190 313 11524ft 165kts
08-Feb-19 12:07 36.846399 -122.224369 313 11520ft 165kts
08-Feb-19 12:08 36.884046 -122.257715 313 11510ft 165kts
08-Feb-19 12:09 36.921612 -122.291032 313 11496ft 165kts
08-Feb-19 12:10 36.959198 -122.324410 313 11478ft 165kts
08-Feb-19 12:11 36.996847 -122.357905 313 11464ft 166kts
08-Feb-19 12:12 37.034668 -122.391573 314 11482ft 167kts
08-Feb-19 12:13 37.072867 -122.425641 315 11480ft 169kts
08-Feb-19 12:14 37.115763 -122.453211 334 11473ft 177kts
08-Feb-19 12:15 37.162524 -122.473269 335 11473ft 177kts
08-Feb-19 12:16 37.209394 -122.493197 335 11473ft 177kts
08-Feb-19 12:17 37.256208 -122.513107 335 11474ft 177kts
08-Feb-19 12:18 37.303082 -122.533060 335 11474ft 178kts
08-Feb-19 12:19 37.350026 -122.553073 335 11474ft 178kts
08-Feb-19 12:20 37.396977 -122.573114 335 11475ft 178kts
08-Feb-19 12:21 37.444035 -122.593231 335 11475ft 178kts
08-Feb-19 12:22 37.491271 -122.613451 335 11476ft 178kts
08-Feb-19 12:23 37.538385 -122.633643 335 11476ft 178kts
08-Feb-19 12:25 37.585321 -122.653779 334 11477ft 178kts
08-Feb-19 12:26 37.632598 -122.674103 334 11478ft 179kts
08-Feb-19 12:27 37.679937 -122.694469 334 11478ft 179kts
08-Feb-19 12:28 37.727115 -122.714802 334 11479ft 179kts
08-Feb-19 12:29 37.774593 -122.735281 334 11479ft 179kts
08-Feb-19 12:30 37.821942 -122.755744 334 11479ft 179kts
08-Feb-19 12:31 37.867748 -122.775517 334 11715ft 169kts
08-Feb-19 12:32 37.914495 -122.795851 335 11591ft 182kts
08-Feb-19 12:33 37.962287 -122.816543 334 11595ft 180kts
08-Feb-19 12:34 38.000591 -122.833178 334 11595ft 179kts
08-Feb-19 12:35 38.000591 -122.833178 334 11595ft 179kts
08-Feb-19 12:36 38.022242 -122.842591 334 11595ft 180kts
08-Feb-19 12:37 38.069766 -122.863268 334 11596ft 180kts
08-Feb-19 12:38 38.119841 -122.874939 347 11582ft 182kts
08-Feb-19 12:39 38.170049 -122.884261 347 11574ft 181kts
08-Feb-19 12:40 38.219909 -122.893475 347 11566ft 181kts
08-Feb-19 12:41 38.269152 -122.902576 347 11552ft 167kts
08-Feb-19 12:42 38.310126 -122.910150 342 11493ft 119kts
08-Feb-19 12:43 38.317846 -122.914125 205 5735ft 125kts
08-Feb-19 12:44 38.314487 -122.909523 156 2668ft 90kts
08-Feb-19 12:44 38.310320 -122.891620 116 3663ft 65kts
08-Feb-19 12:46 38.333129 -122.909553 342 3925ft 166kts
08-Feb-19 12:47 38.364629 -122.921632 357 5395ft 117kts
08-Feb-19 12:48 38.404710 -122.927532 351 5466ft 174kts
08-Feb-19 12:48 38.445612 -122.935195 351 5460ft 180kts
08-Feb-19 12:50 38.503764 -122.946025 351 5460ft 181kts
08-Feb-19 12:51 38.554211 -122.955425 351 5593ft 178kts
08-Feb-19 12:51 38.593680 -122.962785 351 6072ft 170kts
08-Feb-19 12:52 38.640298 -122.971497 351 6587ft 169kts
08-Feb-19 12:53 38.687154 -122.980265 351 7084ft 169kts
08-Feb-19 12:54 38.729175 -123.005879 324 7472ft 173kts
08-Feb-19 12:55 38.771783 -123.040702 324 7467ft 185kts
08-Feb-19 12:56 38.815453 -123.076725 324 7458ft 187kts
08-Feb-19 12:57 38.859210 -123.112912 325 7457ft 186kts
08-Feb-19 12:58 38.902822 -123.149043 325 7457ft 186kts
08-Feb-19 12:59 38.946277 -123.185098 326 7457ft 185kts
08-Feb-19 13:00 38.989633 -123.221117 326 7458ft 185kts
08-Feb-19 13:01 39.032911 -123.257125 327 7458ft 184kts
08-Feb-19 13:02 39.079650 -123.282187 347 7458ft 183kts
08-Feb-19 13:03 39.129036 -123.298286 348 7454ft 182kts
08-Feb-19 13:04 39.178469 -123.314161 348 7455ft 182kts
08-Feb-19 13:05 39.227603 -123.329938 348 7455ft 182kts
08-Feb-19 13:06 39.277045 -123.345834 348 7455ft 182kts
08-Feb-19 13:07 39.326190 -123.361652 348 7456ft 183kts
08-Feb-19 13:08 39.375514 -123.377554 348 7455ft 182kts
08-Feb-19 13:09 39.424685 -123.393431 348 7456ft 181kts
08-Feb-19 13:10 39.473683 -123.409275 348 7456ft 181kts
08-Feb-19 13:11 39.521944 -123.424905 348 7456ft 182kts
08-Feb-19 13:12 39.571045 -123.440829 348 7456ft 182kts
08-Feb-19 13:13 39.620160 -123.456781 348 7457ft 182kts
08-Feb-19 13:14 39.669582 -123.472856 348 7457ft 182kts
08-Feb-19 13:15 39.719013 -123.488958 348 7457ft 182kts
08-Feb-19 13:16 39.768220 -123.505012 348 7458ft 182kts
08-Feb-19 13:17 39.814025 -123.519998 348 8026ft 163kts
08-Feb-19 13:18 39.857906 -123.534337 348 8470ft 162kts
08-Feb-19 13:19 39.903721 -123.549327 346 8453ft 173kts
08-Feb-19 13:20 39.951409 -123.564952 344 8448ft 180kts
08-Feb-19 13:21 40.000622 -123.581106 342 8440ft 182kts
08-Feb-19 13:22 40.049585 -123.597252 342 8438ft 180kts
08-Feb-19 13:23 40.098496 -123.613384 342 8438ft 180kts
08-Feb-19 13:24 40.147270 -123.629476 342 8434ft 179kts
08-Feb-19 13:25 40.195569 -123.645438 342 8434ft 179kts
08-Feb-19 13:26 40.244046 -123.661483 341 8436ft 179kts
08-Feb-19 13:27 40.292706 -123.677611 341 8444ft 179kts
08-Feb-19 13:28 40.340605 -123.694821 331 8445ft 177kts
08-Feb-19 13:29 40.385299 -123.722596 329 8445ft 176kts
08-Feb-19 13:30 40.430233 -123.749597 331 8445ft 177kts
08-Feb-19 13:31 40.475667 -123.776133 331 8445ft 177kts
08-Feb-19 13:32 40.520842 -123.802579 331 8446ft 177kts
08-Feb-19 13:33 40.567392 -123.824719 343 8453ft 179kts
08-Feb-19 13:34 40.614422 -123.854918 325 7732ft 195kts
08-Feb-19 13:35 40.661346 -123.890660 335 6912ft 182kts
08-Feb-19 13:36 40.704451 -123.921414 353 5279ft 168kts
08-Feb-19 13:37 40.742810 -123.947613 333 4141ft 132kts
08-Feb-19 13:38 40.771161 -123.967726 335 4159ft 105kts
08-Feb-19 13:39 40.805231 -123.990791 333 2825ft 151kts
08-Feb-19 13:40 40.838259 -124.013261 333 2663ft 115kts
08-Feb-19 13:41 40.867116 -124.032787 332 2209ft 132kts
08-Feb-19 13:42 40.901705 -124.056265 332 1344ft 143kts
08-Feb-19 13:43 40.935311 -124.078876 337 960ft 108kts
08-Feb-19 13:44 40.955976 -124.091984 333 505ft 73kts
08-Feb-19 13:45 40.956922 -124.092700 329 487ft 72kts
08-Feb-19 13:46 40.956922 -124.092700 329 487ft 72kts
08-Feb-19 13:47 40.956922 -124.092700 329 487ft 72kts
08-Feb-19 13:48 40.956922 -124.092700 329 487ft 72kts
08-Feb-19 13:49 40.968285 -124.101407 331 354ft 73kts
08-Feb-19 13:50 40.976412 -124.108484 187 224ft 12kts
08-Feb-19 13:51 40.973128 -124.107065 335 225ft 0kts
08-Feb-19 13:52 40.973127 -124.107065 335 225ft 0kts
08-Feb-19 13:53 40.973127 -124.107065 335 225ft 0kts
08-Feb-19 13:54 40.973127 -124.107065 335 225ft 0kts
08-Feb-19 13:55 40.973127 -124.107065 335 225ft 0kts
08-Feb-19 13:56 40.973127 -124.107065 335 225ft 0kts
08-Feb-19 13:57 40.973127 -124.107065 335 225ft 0kts
08-Feb-19 13:58 40.973127 -124.107065 335 225ft 0kts
08-Feb-19 13:59 40.973127 -124.107065 335 225ft 0kts
08-Feb-19 14:00 40.973127 -124.107065 335 225ft 0kts
08-Feb-19 14:01 40.973127 -124.107065 335 225ft 0kts
08-Feb-19 14:02 40.973127 -124.107065 335 225ft 0kts
08-Feb-19 14:03 40.973127 -124.107065 335 225ft 0kts
08-Feb-19 14:04 40.973127 -124.107065 335 225ft 0kts
08-Feb-19 14:05 40.973127 -124.107065 335 225ft 0kts

Navigation Log

Ident Type
Flight plan parsing failed, navigation log unavailable